sensor_id;sensor_type;location;lat;lon;timestamp;P1;durP1;ratioP1;P2;durP2;ratioP2
18140;SDS011;9196;49.194;12.526;2023-05-07T00:01:39;5.20;;;4.80;;
18140;SDS011;9196;49.194;12.526;2023-05-07T00:04:05;5.00;;;4.60;;
18140;SDS011;9196;49.194;12.526;2023-05-07T00:06:33;4.97;;;4.57;;
18140;SDS011;9196;49.194;12.526;2023-05-07T00:09:01;5.53;;;5.03;;
18140;SDS011;9196;49.194;12.526;2023-05-07T00:11:29;5.53;;;4.60;;
18140;SDS011;9196;49.194;12.526;2023-05-07T00:13:55;4.63;;;4.33;;
18140;SDS011;9196;49.194;12.526;2023-05-07T00:16:22;4.70;;;4.40;;
18140;SDS011;9196;49.194;12.526;2023-05-07T00:18:49;9.43;;;5.03;;
18140;SDS011;9196;49.194;12.526;2023-05-07T00:21:16;5.50;;;5.00;;
18140;SDS011;9196;49.194;12.526;2023-05-07T00:23:43;5.70;;;4.30;;
18140;SDS011;9196;49.194;12.526;2023-05-07T00:26:11;11.30;;;5.50;;
18140;SDS011;9196;49.194;12.526;2023-05-07T00:28:37;5.73;;;5.23;;
18140;SDS011;9196;49.194;12.526;2023-05-07T00:31:04;5.00;;;4.60;;
18140;SDS011;9196;49.194;12.526;2023-05-07T00:33:31;6.50;;;5.80;;
18140;SDS011;9196;49.194;12.526;2023-05-07T00:35:58;5.50;;;5.00;;
18140;SDS011;9196;49.194;12.526;2023-05-07T00:38:26;6.00;;;5.50;;
18140;SDS011;9196;49.194;12.526;2023-05-07T00:40:52;5.60;;;5.10;;
18140;SDS011;9196;49.194;12.526;2023-05-07T00:43:20;5.57;;;4.67;;
18140;SDS011;9196;49.194;12.526;2023-05-07T00:45:47;5.50;;;5.00;;
18140;SDS011;9196;49.194;12.526;2023-05-07T00:48:15;5.90;;;5.33;;
18140;SDS011;9196;49.194;12.526;2023-05-07T00:50:42;6.83;;;5.10;;
18140;SDS011;9196;49.194;12.526;2023-05-07T00:53:09;10.97;;;5.00;;
18140;SDS011;9196;49.194;12.526;2023-05-07T00:55:36;5.40;;;4.90;;
18140;SDS011;9196;49.194;12.526;2023-05-07T00:58:03;5.27;;;4.80;;
18140;SDS011;9196;49.194;12.526;2023-05-07T01:00:32;6.10;;;5.40;;
18140;SDS011;9196;49.194;12.526;2023-05-07T01:02:58;8.80;;;5.47;;
18140;SDS011;9196;49.194;12.526;2023-05-07T01:05:25;7.50;;;4.80;;
18140;SDS011;9196;49.194;12.526;2023-05-07T01:07:54;5.93;;;5.43;;
18140;SDS011;9196;49.194;12.526;2023-05-07T01:10:22;7.27;;;5.10;;
18140;SDS011;9196;49.194;12.526;2023-05-07T01:12:49;7.47;;;6.60;;
18140;SDS011;9196;49.194;12.526;2023-05-07T01:15:17;5.90;;;5.40;;
18140;SDS011;9196;49.194;12.526;2023-05-07T01:17:45;6.07;;;5.57;;
18140;SDS011;9196;49.194;12.526;2023-05-07T01:20:12;7.17;;;6.33;;
18140;SDS011;9196;49.194;12.526;2023-05-07T01:22:42;6.47;;;5.97;;
18140;SDS011;9196;49.194;12.526;2023-05-07T01:25:09;7.00;;;6.30;;
18140;SDS011;9196;49.194;12.526;2023-05-07T01:27:36;6.83;;;6.23;;
18140;SDS011;9196;49.194;12.526;2023-05-07T01:30:03;6.43;;;5.90;;
18140;SDS011;9196;49.194;12.526;2023-05-07T01:32:32;7.20;;;6.10;;
18140;SDS011;9196;49.194;12.526;2023-05-07T01:35:02;7.00;;;6.40;;
18140;SDS011;9196;49.194;12.526;2023-05-07T01:37:31;7.73;;;6.93;;
18140;SDS011;9196;49.194;12.526;2023-05-07T01:40:00;8.10;;;7.00;;
18140;SDS011;9196;49.194;12.526;2023-05-07T01:42:28;8.57;;;7.77;;
18140;SDS011;9196;49.194;12.526;2023-05-07T01:44:55;6.77;;;6.17;;
18140;SDS011;9196;49.194;12.526;2023-05-07T01:47:22;8.60;;;7.00;;
18140;SDS011;9196;49.194;12.526;2023-05-07T01:49:50;7.97;;;7.27;;
18140;SDS011;9196;49.194;12.526;2023-05-07T01:52:17;8.80;;;7.93;;
18140;SDS011;9196;49.194;12.526;2023-05-07T01:54:44;9.23;;;7.67;;
18140;SDS011;9196;49.194;12.526;2023-05-07T01:57:12;7.77;;;7.07;;
18140;SDS011;9196;49.194;12.526;2023-05-07T01:59:39;7.40;;;6.73;;
18140;SDS011;9196;49.194;12.526;2023-05-07T02:02:05;8.30;;;7.50;;
18140;SDS011;9196;49.194;12.526;2023-05-07T02:04:32;8.20;;;7.20;;
18140;SDS011;9196;49.194;12.526;2023-05-07T02:06:59;8.30;;;7.57;;
18140;SDS011;9196;49.194;12.526;2023-05-07T02:09:26;9.20;;;8.30;;
18140;SDS011;9196;49.194;12.526;2023-05-07T02:11:53;9.10;;;7.90;;
18140;SDS011;9196;49.194;12.526;2023-05-07T02:14:21;8.97;;;8.07;;
18140;SDS011;9196;49.194;12.526;2023-05-07T02:16:48;10.47;;;8.13;;
18140;SDS011;9196;49.194;12.526;2023-05-07T02:19:14;8.80;;;8.00;;
18140;SDS011;9196;49.194;12.526;2023-05-07T02:21:41;10.03;;;7.10;;
18140;SDS011;9196;49.194;12.526;2023-05-07T02:24:08;9.17;;;8.03;;
18140;SDS011;9196;49.194;12.526;2023-05-07T02:26:35;9.67;;;8.77;;
18140;SDS011;9196;49.194;12.526;2023-05-07T02:29:01;9.10;;;8.20;;
18140;SDS011;9196;49.194;12.526;2023-05-07T02:31:30;9.40;;;8.17;;
18140;SDS011;9196;49.194;12.526;2023-05-07T02:33:58;10.10;;;9.00;;
18140;SDS011;9196;49.194;12.526;2023-05-07T02:36:25;10.30;;;8.63;;
18140;SDS011;9196;49.194;12.526;2023-05-07T02:38:52;10.93;;;9.83;;
18140;SDS011;9196;49.194;12.526;2023-05-07T02:41:19;12.03;;;7.63;;
18140;SDS011;9196;49.194;12.526;2023-05-07T02:43:46;9.87;;;8.87;;
18140;SDS011;9196;49.194;12.526;2023-05-07T02:46:13;13.40;;;8.30;;
18140;SDS011;9196;49.194;12.526;2023-05-07T02:48:42;9.00;;;8.20;;
18140;SDS011;9196;49.194;12.526;2023-05-07T02:51:08;9.83;;;8.50;;
18140;SDS011;9196;49.194;12.526;2023-05-07T02:53:35;15.10;;;9.03;;
18140;SDS011;9196;49.194;12.526;2023-05-07T02:56:02;9.93;;;8.90;;
18140;SDS011;9196;49.194;12.526;2023-05-07T02:58:30;10.87;;;9.63;;
18140;SDS011;9196;49.194;12.526;2023-05-07T03:06:56;11.33;;;9.03;;
18140;SDS011;9196;49.194;12.526;2023-05-07T03:09:22;11.20;;;9.73;;
18140;SDS011;9196;49.194;12.526;2023-05-07T03:11:49;15.50;;;10.63;;
18140;SDS011;9196;49.194;12.526;2023-05-07T03:14:16;11.10;;;9.70;;
18140;SDS011;9196;49.194;12.526;2023-05-07T03:16:43;10.67;;;9.10;;
18140;SDS011;9196;49.194;12.526;2023-05-07T03:19:10;10.90;;;9.80;;
18140;SDS011;9196;49.194;12.526;2023-05-07T03:21:37;12.67;;;9.77;;
18140;SDS011;9196;49.194;12.526;2023-05-07T03:24:05;11.23;;;8.80;;
18140;SDS011;9196;49.194;12.526;2023-05-07T03:26:32;11.73;;;9.73;;
18140;SDS011;9196;49.194;12.526;2023-05-07T03:28:59;10.03;;;8.50;;
18140;SDS011;9196;49.194;12.526;2023-05-07T03:31:26;10.50;;;8.80;;
18140;SDS011;9196;49.194;12.526;2023-05-07T03:33:53;13.13;;;9.10;;
18140;SDS011;9196;49.194;12.526;2023-05-07T03:36:21;10.50;;;9.40;;
18140;SDS011;9196;49.194;12.526;2023-05-07T03:38:48;10.70;;;9.60;;
18140;SDS011;9196;49.194;12.526;2023-05-07T03:41:17;13.73;;;9.40;;
18140;SDS011;9196;49.194;12.526;2023-05-07T03:43:45;11.73;;;8.73;;
18140;SDS011;9196;49.194;12.526;2023-05-07T03:46:12;10.50;;;9.40;;
18140;SDS011;9196;49.194;12.526;2023-05-07T03:48:38;9.90;;;8.90;;
18140;SDS011;9196;49.194;12.526;2023-05-07T03:51:05;11.37;;;10.03;;
18140;SDS011;9196;49.194;12.526;2023-05-07T03:53:32;12.20;;;9.93;;
18140;SDS011;9196;49.194;12.526;2023-05-07T03:55:59;13.10;;;10.10;;
18140;SDS011;9196;49.194;12.526;2023-05-07T03:58:27;10.43;;;9.33;;
18140;SDS011;9196;49.194;12.526;2023-05-07T04:00:54;12.93;;;10.30;;
18140;SDS011;9196;49.194;12.526;2023-05-07T04:03:21;11.00;;;9.57;;
18140;SDS011;9196;49.194;12.526;2023-05-07T04:05:48;12.57;;;10.90;;
18140;SDS011;9196;49.194;12.526;2023-05-07T04:08:14;13.43;;;10.57;;
18140;SDS011;9196;49.194;12.526;2023-05-07T04:10:41;11.77;;;9.87;;
18140;SDS011;9196;49.194;12.526;2023-05-07T04:13:08;12.07;;;10.87;;
18140;SDS011;9196;49.194;12.526;2023-05-07T04:15:36;11.53;;;9.50;;
18140;SDS011;9196;49.194;12.526;2023-05-07T04:18:03;13.83;;;11.60;;
18140;SDS011;9196;49.194;12.526;2023-05-07T04:20:30;10.97;;;9.60;;
18140;SDS011;9196;49.194;12.526;2023-05-07T04:23:01;13.43;;;10.30;;
18140;SDS011;9196;49.194;12.526;2023-05-07T04:25:28;16.83;;;10.20;;
18140;SDS011;9196;49.194;12.526;2023-05-07T04:27:54;18.43;;;13.27;;
18140;SDS011;9196;49.194;12.526;2023-05-07T04:30:21;12.70;;;9.20;;
18140;SDS011;9196;49.194;12.526;2023-05-07T04:32:49;19.53;;;10.43;;
18140;SDS011;9196;49.194;12.526;2023-05-07T04:35:16;14.00;;;10.40;;
18140;SDS011;9196;49.194;12.526;2023-05-07T04:37:43;14.50;;;10.40;;
18140;SDS011;9196;49.194;12.526;2023-05-07T04:40:10;10.97;;;9.87;;
18140;SDS011;9196;49.194;12.526;2023-05-07T04:42:37;10.90;;;9.33;;
18140;SDS011;9196;49.194;12.526;2023-05-07T04:45:04;9.60;;;8.60;;
18140;SDS011;9196;49.194;12.526;2023-05-07T04:47:31;14.43;;;9.13;;
18140;SDS011;9196;49.194;12.526;2023-05-07T04:49:59;11.90;;;9.77;;
18140;SDS011;9196;49.194;12.526;2023-05-07T04:52:26;12.10;;;10.73;;
18140;SDS011;9196;49.194;12.526;2023-05-07T04:54:53;11.47;;;9.80;;
18140;SDS011;9196;49.194;12.526;2023-05-07T04:57:20;14.20;;;11.10;;
18140;SDS011;9196;49.194;12.526;2023-05-07T04:59:47;14.07;;;9.13;;
18140;SDS011;9196;49.194;12.526;2023-05-07T05:02:15;11.97;;;10.40;;
18140;SDS011;9196;49.194;12.526;2023-05-07T05:04:42;12.00;;;10.53;;
18140;SDS011;9196;49.194;12.526;2023-05-07T05:07:10;10.80;;;9.40;;
18140;SDS011;9196;49.194;12.526;2023-05-07T05:09:37;14.40;;;11.00;;
18140;SDS011;9196;49.194;12.526;2023-05-07T05:12:04;12.00;;;10.80;;
18140;SDS011;9196;49.194;12.526;2023-05-07T05:14:32;13.27;;;11.60;;
18140;SDS011;9196;49.194;12.526;2023-05-07T05:16:59;12.70;;;11.23;;
18140;SDS011;9196;49.194;12.526;2023-05-07T05:19:25;18.70;;;11.97;;
18140;SDS011;9196;49.194;12.526;2023-05-07T05:21:52;13.20;;;11.20;;
18140;SDS011;9196;49.194;12.526;2023-05-07T05:24:20;13.70;;;11.47;;
18140;SDS011;9196;49.194;12.526;2023-05-07T05:26:47;14.33;;;11.20;;
18140;SDS011;9196;49.194;12.526;2023-05-07T05:29:14;14.70;;;11.13;;
18140;SDS011;9196;49.194;12.526;2023-05-07T05:31:41;12.33;;;10.83;;
18140;SDS011;9196;49.194;12.526;2023-05-07T05:34:07;13.70;;;11.17;;
18140;SDS011;9196;49.194;12.526;2023-05-07T05:36:34;12.87;;;10.67;;
18140;SDS011;9196;49.194;12.526;2023-05-07T05:39:01;17.43;;;10.27;;
18140;SDS011;9196;49.194;12.526;2023-05-07T05:41:29;15.20;;;11.00;;
18140;SDS011;9196;49.194;12.526;2023-05-07T05:43:56;12.37;;;10.70;;
18140;SDS011;9196;49.194;12.526;2023-05-07T05:46:23;14.90;;;12.40;;
18140;SDS011;9196;49.194;12.526;2023-05-07T05:48:50;15.80;;;12.40;;
18140;SDS011;9196;49.194;12.526;2023-05-07T05:51:17;21.13;;;12.97;;
18140;SDS011;9196;49.194;12.526;2023-05-07T05:53:44;16.17;;;13.07;;
18140;SDS011;9196;49.194;12.526;2023-05-07T05:56:11;18.10;;;12.10;;
18140;SDS011;9196;49.194;12.526;2023-05-07T05:58:39;15.30;;;12.70;;
18140;SDS011;9196;49.194;12.526;2023-05-07T06:01:06;13.90;;;12.10;;
18140;SDS011;9196;49.194;12.526;2023-05-07T06:03:33;17.03;;;12.50;;
18140;SDS011;9196;49.194;12.526;2023-05-07T06:05:59;18.77;;;11.83;;
18140;SDS011;9196;49.194;12.526;2023-05-07T06:08:28;14.57;;;12.10;;
18140;SDS011;9196;49.194;12.526;2023-05-07T06:10:55;19.17;;;13.53;;
18140;SDS011;9196;49.194;12.526;2023-05-07T06:13:22;18.30;;;13.50;;
18140;SDS011;9196;49.194;12.526;2023-05-07T06:15:51;17.10;;;12.77;;
18140;SDS011;9196;49.194;12.526;2023-05-07T06:18:17;14.03;;;12.23;;
18140;SDS011;9196;49.194;12.526;2023-05-07T06:20:44;17.90;;;13.50;;
18140;SDS011;9196;49.194;12.526;2023-05-07T06:23:11;22.23;;;14.07;;
18140;SDS011;9196;49.194;12.526;2023-05-07T06:25:38;16.20;;;12.80;;
18140;SDS011;9196;49.194;12.526;2023-05-07T06:28:05;32.43;;;15.30;;
18140;SDS011;9196;49.194;12.526;2023-05-07T06:30:33;17.17;;;14.17;;
18140;SDS011;9196;49.194;12.526;2023-05-07T06:33:01;19.33;;;12.90;;
18140;SDS011;9196;49.194;12.526;2023-05-07T06:35:28;19.90;;;13.13;;
18140;SDS011;9196;49.194;12.526;2023-05-07T06:37:55;17.03;;;12.53;;
18140;SDS011;9196;49.194;12.526;2023-05-07T06:40:22;17.20;;;13.13;;
18140;SDS011;9196;49.194;12.526;2023-05-07T06:42:48;23.80;;;14.57;;
18140;SDS011;9196;49.194;12.526;2023-05-07T06:45:15;17.50;;;13.77;;
18140;SDS011;9196;49.194;12.526;2023-05-07T06:47:42;15.30;;;13.60;;
18140;SDS011;9196;49.194;12.526;2023-05-07T06:50:10;15.60;;;14.00;;
18140;SDS011;9196;49.194;12.526;2023-05-07T06:52:37;16.73;;;13.00;;
18140;SDS011;9196;49.194;12.526;2023-05-07T06:55:05;27.27;;;13.93;;
18140;SDS011;9196;49.194;12.526;2023-05-07T06:57:32;17.10;;;13.27;;
18140;SDS011;9196;49.194;12.526;2023-05-07T06:59:59;19.20;;;13.80;;
18140;SDS011;9196;49.194;12.526;2023-05-07T07:02:26;15.60;;;12.27;;
18140;SDS011;9196;49.194;12.526;2023-05-07T07:04:53;19.10;;;13.60;;
18140;SDS011;9196;49.194;12.526;2023-05-07T07:07:21;25.40;;;13.10;;
18140;SDS011;9196;49.194;12.526;2023-05-07T07:09:48;14.93;;;13.33;;
18140;SDS011;9196;49.194;12.526;2023-05-07T07:12:16;16.80;;;13.60;;
18140;SDS011;9196;49.194;12.526;2023-05-07T07:14:43;18.33;;;12.47;;
18140;SDS011;9196;49.194;12.526;2023-05-07T07:17:09;17.10;;;13.13;;
18140;SDS011;9196;49.194;12.526;2023-05-07T07:19:36;13.43;;;11.53;;
18140;SDS011;9196;49.194;12.526;2023-05-07T07:22:04;16.30;;;12.43;;
18140;SDS011;9196;49.194;12.526;2023-05-07T07:24:32;14.27;;;12.20;;
18140;SDS011;9196;49.194;12.526;2023-05-07T07:26:59;20.53;;;13.97;;
18140;SDS011;9196;49.194;12.526;2023-05-07T07:29:26;16.47;;;12.60;;
18140;SDS011;9196;49.194;12.526;2023-05-07T07:31:52;15.23;;;12.90;;
18140;SDS011;9196;49.194;12.526;2023-05-07T07:34:19;14.40;;;12.37;;
18140;SDS011;9196;49.194;12.526;2023-05-07T07:36:46;19.53;;;13.60;;
18140;SDS011;9196;49.194;12.526;2023-05-07T07:39:13;16.60;;;13.00;;
18140;SDS011;9196;49.194;12.526;2023-05-07T07:41:41;14.20;;;12.70;;
18140;SDS011;9196;49.194;12.526;2023-05-07T07:44:08;16.00;;;12.33;;
18140;SDS011;9196;49.194;12.526;2023-05-07T07:46:37;17.47;;;13.10;;
18140;SDS011;9196;49.194;12.526;2023-05-07T07:49:04;15.07;;;11.93;;
18140;SDS011;9196;49.194;12.526;2023-05-07T07:51:31;20.20;;;13.93;;
18140;SDS011;9196;49.194;12.526;2023-05-07T07:53:58;16.40;;;11.67;;
18140;SDS011;9196;49.194;12.526;2023-05-07T07:56:25;15.73;;;13.40;;
18140;SDS011;9196;49.194;12.526;2023-05-07T07:58:54;20.63;;;13.33;;
18140;SDS011;9196;49.194;12.526;2023-05-07T08:01:20;16.70;;;13.30;;
18140;SDS011;9196;49.194;12.526;2023-05-07T08:03:47;19.37;;;14.90;;
18140;SDS011;9196;49.194;12.526;2023-05-07T08:06:14;17.80;;;14.17;;
18140;SDS011;9196;49.194;12.526;2023-05-07T08:08:41;15.53;;;13.20;;
18140;SDS011;9196;49.194;12.526;2023-05-07T08:11:07;18.03;;;13.90;;
18140;SDS011;9196;49.194;12.526;2023-05-07T08:13:34;13.97;;;11.77;;
18140;SDS011;9196;49.194;12.526;2023-05-07T08:16:03;18.07;;;14.60;;
18140;SDS011;9196;49.194;12.526;2023-05-07T08:18:30;23.80;;;12.40;;
18140;SDS011;9196;49.194;12.526;2023-05-07T08:20:57;17.20;;;12.33;;
18140;SDS011;9196;49.194;12.526;2023-05-07T08:23:23;17.90;;;13.63;;
18140;SDS011;9196;49.194;12.526;2023-05-07T08:25:50;15.40;;;12.80;;
18140;SDS011;9196;49.194;12.526;2023-05-07T08:28:17;15.33;;;13.00;;
18140;SDS011;9196;49.194;12.526;2023-05-07T08:30:44;17.50;;;13.30;;
18140;SDS011;9196;49.194;12.526;2023-05-07T08:33:13;15.63;;;12.77;;
18140;SDS011;9196;49.194;12.526;2023-05-07T08:35:40;14.47;;;12.97;;
18140;SDS011;9196;49.194;12.526;2023-05-07T08:38:07;13.47;;;12.07;;
18140;SDS011;9196;49.194;12.526;2023-05-07T08:40:34;19.90;;;12.80;;
18140;SDS011;9196;49.194;12.526;2023-05-07T08:43:04;14.33;;;11.57;;
18140;SDS011;9196;49.194;12.526;2023-05-07T08:45:32;14.20;;;12.03;;
18140;SDS011;9196;49.194;12.526;2023-05-07T08:48:01;16.60;;;13.50;;
18140;SDS011;9196;49.194;12.526;2023-05-07T08:50:32;16.93;;;13.43;;
18140;SDS011;9196;49.194;12.526;2023-05-07T08:53:02;15.03;;;13.40;;
18140;SDS011;9196;49.194;12.526;2023-05-07T08:55:29;16.70;;;13.00;;
18140;SDS011;9196;49.194;12.526;2023-05-07T08:57:56;16.40;;;13.43;;
18140;SDS011;9196;49.194;12.526;2023-05-07T09:00:22;14.63;;;10.67;;
18140;SDS011;9196;49.194;12.526;2023-05-07T09:02:49;16.67;;;12.77;;
18140;SDS011;9196;49.194;12.526;2023-05-07T09:05:17;15.43;;;12.80;;
18140;SDS011;9196;49.194;12.526;2023-05-07T09:07:45;19.97;;;12.77;;
18140;SDS011;9196;49.194;12.526;2023-05-07T09:10:12;16.73;;;13.20;;
18140;SDS011;9196;49.194;12.526;2023-05-07T09:12:39;17.80;;;13.63;;
18140;SDS011;9196;49.194;12.526;2023-05-07T09:15:07;17.83;;;14.03;;
18140;SDS011;9196;49.194;12.526;2023-05-07T09:17:34;14.20;;;12.30;;
18140;SDS011;9196;49.194;12.526;2023-05-07T09:20:04;15.00;;;12.47;;
18140;SDS011;9196;49.194;12.526;2023-05-07T09:22:32;15.70;;;12.10;;
18140;SDS011;9196;49.194;12.526;2023-05-07T09:25:01;14.07;;;11.57;;
18140;SDS011;9196;49.194;12.526;2023-05-07T09:27:27;18.73;;;13.50;;
18140;SDS011;9196;49.194;12.526;2023-05-07T09:29:54;18.20;;;14.63;;
18140;SDS011;9196;49.194;12.526;2023-05-07T09:32:21;14.43;;;12.10;;
18140;SDS011;9196;49.194;12.526;2023-05-07T09:34:48;16.70;;;13.33;;
18140;SDS011;9196;49.194;12.526;2023-05-07T09:37:15;17.60;;;14.90;;
18140;SDS011;9196;49.194;12.526;2023-05-07T09:39:43;17.27;;;12.73;;
18140;SDS011;9196;49.194;12.526;2023-05-07T09:42:12;21.73;;;14.10;;
18140;SDS011;9196;49.194;12.526;2023-05-07T09:44:40;16.97;;;13.10;;
18140;SDS011;9196;49.194;12.526;2023-05-07T09:47:07;18.43;;;12.97;;
18140;SDS011;9196;49.194;12.526;2023-05-07T09:49:34;18.03;;;12.10;;
18140;SDS011;9196;49.194;12.526;2023-05-07T09:52:02;15.97;;;12.80;;
18140;SDS011;9196;49.194;12.526;2023-05-07T09:54:31;17.20;;;13.63;;
18140;SDS011;9196;49.194;12.526;2023-05-07T09:57:01;15.80;;;13.80;;
18140;SDS011;9196;49.194;12.526;2023-05-07T09:59:29;19.47;;;13.57;;
18140;SDS011;9196;49.194;12.526;2023-05-07T10:01:58;14.70;;;12.60;;
18140;SDS011;9196;49.194;12.526;2023-05-07T10:04:26;16.00;;;12.60;;
18140;SDS011;9196;49.194;12.526;2023-05-07T10:06:53;14.17;;;12.30;;
18140;SDS011;9196;49.194;12.526;2023-05-07T10:09:21;15.80;;;12.87;;
18140;SDS011;9196;49.194;12.526;2023-05-07T10:11:50;12.60;;;11.27;;
18140;SDS011;9196;49.194;12.526;2023-05-07T10:14:17;16.53;;;13.20;;
18140;SDS011;9196;49.194;12.526;2023-05-07T10:16:48;13.07;;;11.70;;
18140;SDS011;9196;49.194;12.526;2023-05-07T10:19:15;14.30;;;11.70;;
18140;SDS011;9196;49.194;12.526;2023-05-07T10:21:44;14.63;;;11.93;;
18140;SDS011;9196;49.194;12.526;2023-05-07T10:24:16;14.40;;;12.47;;
18140;SDS011;9196;49.194;12.526;2023-05-07T10:26:47;24.60;;;12.50;;
18140;SDS011;9196;49.194;12.526;2023-05-07T10:29:18;12.40;;;10.77;;
18140;SDS011;9196;49.194;12.526;2023-05-07T10:31:57;10.23;;;9.00;;
18140;SDS011;9196;49.194;12.526;2023-05-07T10:34:28;16.60;;;11.17;;
18140;SDS011;9196;49.194;12.526;2023-05-07T10:37:00;12.40;;;11.00;;
18140;SDS011;9196;49.194;12.526;2023-05-07T10:39:29;14.17;;;10.83;;
18140;SDS011;9196;49.194;12.526;2023-05-07T10:41:56;14.87;;;12.53;;
18140;SDS011;9196;49.194;12.526;2023-05-07T10:44:26;16.63;;;11.53;;
18140;SDS011;9196;49.194;12.526;2023-05-07T10:47:04;12.43;;;11.13;;
18140;SDS011;9196;49.194;12.526;2023-05-07T10:49:35;14.23;;;12.73;;
18140;SDS011;9196;49.194;12.526;2023-05-07T10:52:12;13.23;;;11.30;;
18140;SDS011;9196;49.194;12.526;2023-05-07T10:54:40;12.50;;;11.20;;
18140;SDS011;9196;49.194;12.526;2023-05-07T11:00:40;15.93;;;11.17;;
18140;SDS011;9196;49.194;12.526;2023-05-07T11:03:09;13.00;;;10.97;;
18140;SDS011;9196;49.194;12.526;2023-05-07T11:05:37;13.00;;;11.33;;
18140;SDS011;9196;49.194;12.526;2023-05-07T11:08:04;12.20;;;11.00;;
18140;SDS011;9196;49.194;12.526;2023-05-07T11:10:47;12.93;;;11.10;;
18140;SDS011;9196;49.194;12.526;2023-05-07T11:13:15;14.47;;;10.53;;
18140;SDS011;9196;49.194;12.526;2023-05-07T11:15:43;11.87;;;10.63;;
18140;SDS011;9196;49.194;12.526;2023-05-07T11:18:13;11.57;;;9.70;;
18140;SDS011;9196;49.194;12.526;2023-05-07T11:20:44;9.83;;;8.83;;
18140;SDS011;9196;49.194;12.526;2023-05-07T11:26:26;11.73;;;10.47;;
18140;SDS011;9196;49.194;12.526;2023-05-07T11:28:55;11.10;;;10.10;;
18140;SDS011;9196;49.194;12.526;2023-05-07T11:31:24;11.10;;;10.00;;
18140;SDS011;9196;49.194;12.526;2023-05-07T11:33:54;12.07;;;9.90;;
18140;SDS011;9196;49.194;12.526;2023-05-07T11:36:22;13.40;;;10.87;;
18140;SDS011;9196;49.194;12.526;2023-05-07T11:38:49;14.07;;;10.50;;
18140;SDS011;9196;49.194;12.526;2023-05-07T11:41:16;10.97;;;9.73;;
18140;SDS011;9196;49.194;12.526;2023-05-07T11:43:54;11.43;;;9.10;;
18140;SDS011;9196;49.194;12.526;2023-05-07T11:46:24;11.20;;;9.60;;
18140;SDS011;9196;49.194;12.526;2023-05-07T11:48:52;11.30;;;9.27;;
18140;SDS011;9196;49.194;12.526;2023-05-07T11:51:21;12.73;;;10.97;;
18140;SDS011;9196;49.194;12.526;2023-05-07T11:53:49;11.07;;;9.90;;
18140;SDS011;9196;49.194;12.526;2023-05-07T11:56:17;10.00;;;9.10;;
18140;SDS011;9196;49.194;12.526;2023-05-07T11:58:45;9.23;;;8.33;;
18140;SDS011;9196;49.194;12.526;2023-05-07T12:01:13;8.73;;;7.40;;
18140;SDS011;9196;49.194;12.526;2023-05-07T12:03:41;10.33;;;8.07;;
18140;SDS011;9196;49.194;12.526;2023-05-07T12:06:12;13.13;;;8.60;;
18140;SDS011;9196;49.194;12.526;2023-05-07T12:08:40;6.43;;;5.83;;
18140;SDS011;9196;49.194;12.526;2023-05-07T12:11:08;10.73;;;8.40;;
18140;SDS011;9196;49.194;12.526;2023-05-07T12:13:36;9.20;;;8.30;;
18140;SDS011;9196;49.194;12.526;2023-05-07T12:16:03;9.80;;;8.83;;
18140;SDS011;9196;49.194;12.526;2023-05-07T12:18:32;10.20;;;9.00;;
18140;SDS011;9196;49.194;12.526;2023-05-07T12:21:00;8.63;;;7.83;;
18140;SDS011;9196;49.194;12.526;2023-05-07T12:23:29;9.83;;;8.70;;
18140;SDS011;9196;49.194;12.526;2023-05-07T12:25:56;10.80;;;9.77;;
18140;SDS011;9196;49.194;12.526;2023-05-07T12:28:23;10.53;;;8.50;;
18140;SDS011;9196;49.194;12.526;2023-05-07T12:30:50;10.57;;;9.10;;
18140;SDS011;9196;49.194;12.526;2023-05-07T12:33:17;9.63;;;8.70;;
18140;SDS011;9196;49.194;12.526;2023-05-07T12:35:47;8.63;;;7.60;;
18140;SDS011;9196;49.194;12.526;2023-05-07T12:38:14;8.73;;;7.83;;
18140;SDS011;9196;49.194;12.526;2023-05-07T12:40:44;9.63;;;7.50;;
18140;SDS011;9196;49.194;12.526;2023-05-07T12:43:15;8.43;;;7.60;;
18140;SDS011;9196;49.194;12.526;2023-05-07T12:45:43;8.90;;;8.00;;
18140;SDS011;9196;49.194;12.526;2023-05-07T12:48:10;7.80;;;7.00;;
18140;SDS011;9196;49.194;12.526;2023-05-07T12:50:37;9.63;;;7.67;;
18140;SDS011;9196;49.194;12.526;2023-05-07T12:53:05;8.50;;;7.70;;
18140;SDS011;9196;49.194;12.526;2023-05-07T12:55:39;9.10;;;7.50;;
18140;SDS011;9196;49.194;12.526;2023-05-07T12:58:09;7.43;;;6.73;;
18140;SDS011;9196;49.194;12.526;2023-05-07T13:00:42;8.93;;;7.57;;
18140;SDS011;9196;49.194;12.526;2023-05-07T13:03:09;8.30;;;7.47;;
18140;SDS011;9196;49.194;12.526;2023-05-07T13:05:36;8.53;;;7.00;;
18140;SDS011;9196;49.194;12.526;2023-05-07T13:08:02;8.03;;;6.70;;
18140;SDS011;9196;49.194;12.526;2023-05-07T13:10:29;7.50;;;6.80;;
18140;SDS011;9196;49.194;12.526;2023-05-07T13:12:56;10.23;;;7.60;;
18140;SDS011;9196;49.194;12.526;2023-05-07T13:15:24;11.50;;;7.37;;
18140;SDS011;9196;49.194;12.526;2023-05-07T13:17:52;6.67;;;6.17;;
18140;SDS011;9196;49.194;12.526;2023-05-07T13:20:18;12.27;;;8.90;;
18140;SDS011;9196;49.194;12.526;2023-05-07T13:22:45;7.47;;;6.80;;
18140;SDS011;9196;49.194;12.526;2023-05-07T13:25:12;6.37;;;5.77;;
18140;SDS011;9196;49.194;12.526;2023-05-07T13:27:39;6.07;;;5.57;;
18140;SDS011;9196;49.194;12.526;2023-05-07T13:30:06;7.07;;;6.47;;
18140;SDS011;9196;49.194;12.526;2023-05-07T13:32:34;7.10;;;6.07;;
18140;SDS011;9196;49.194;12.526;2023-05-07T13:35:01;6.23;;;5.63;;
18140;SDS011;9196;49.194;12.526;2023-05-07T13:37:28;8.03;;;5.97;;
18140;SDS011;9196;49.194;12.526;2023-05-07T13:39:55;6.30;;;5.70;;
18140;SDS011;9196;49.194;12.526;2023-05-07T13:42:21;10.27;;;6.63;;
18140;SDS011;9196;49.194;12.526;2023-05-07T13:44:48;7.80;;;6.33;;
18140;SDS011;9196;49.194;12.526;2023-05-07T13:47:15;6.03;;;5.53;;
18140;SDS011;9196;49.194;12.526;2023-05-07T13:49:43;5.43;;;4.93;;
18140;SDS011;9196;49.194;12.526;2023-05-07T13:52:10;7.67;;;5.20;;
18140;SDS011;9196;49.194;12.526;2023-05-07T13:54:37;6.00;;;5.50;;
18140;SDS011;9196;49.194;12.526;2023-05-07T13:57:04;7.67;;;6.40;;
18140;SDS011;9196;49.194;12.526;2023-05-07T13:59:31;8.60;;;7.17;;
18140;SDS011;9196;49.194;12.526;2023-05-07T14:01:57;7.30;;;6.43;;
18140;SDS011;9196;49.194;12.526;2023-05-07T14:04:24;12.83;;;6.37;;
18140;SDS011;9196;49.194;12.526;2023-05-07T14:06:52;7.00;;;6.40;;
18140;SDS011;9196;49.194;12.526;2023-05-07T14:09:19;9.60;;;7.20;;
18140;SDS011;9196;49.194;12.526;2023-05-07T14:11:46;5.97;;;5.47;;
18140;SDS011;9196;49.194;12.526;2023-05-07T14:14:16;6.60;;;6.03;;
18140;SDS011;9196;49.194;12.526;2023-05-07T14:16:43;8.00;;;6.27;;
18140;SDS011;9196;49.194;12.526;2023-05-07T14:19:09;8.10;;;5.70;;
18140;SDS011;9196;49.194;12.526;2023-05-07T14:21:36;7.53;;;6.40;;
18140;SDS011;9196;49.194;12.526;2023-05-07T14:24:05;8.40;;;7.60;;
18140;SDS011;9196;49.194;12.526;2023-05-07T14:26:32;8.13;;;6.90;;
18140;SDS011;9196;49.194;12.526;2023-05-07T14:28:59;7.70;;;7.00;;
18140;SDS011;9196;49.194;12.526;2023-05-07T14:31:26;7.33;;;6.63;;
18140;SDS011;9196;49.194;12.526;2023-05-07T14:33:53;10.37;;;7.10;;
18140;SDS011;9196;49.194;12.526;2023-05-07T14:36:19;7.50;;;6.90;;
18140;SDS011;9196;49.194;12.526;2023-05-07T14:38:48;5.90;;;5.40;;
18140;SDS011;9196;49.194;12.526;2023-05-07T14:41:16;6.43;;;5.90;;
18140;SDS011;9196;49.194;12.526;2023-05-07T14:43:43;7.50;;;6.80;;
18140;SDS011;9196;49.194;12.526;2023-05-07T14:46:14;6.97;;;6.37;;
18140;SDS011;9196;49.194;12.526;2023-05-07T14:48:42;6.83;;;6.23;;